CDT,Max TemperatureF,Mean TemperatureF,Min TemperatureF,Max Dew PointF,MeanDew PointF,Min DewpointF,Max Humidity, Mean Humidity, Min Humidity, Max Sea Level PressureIn, Mean Sea Level PressureIn, Min Sea Level PressureIn, Max VisibilityMiles, Mean VisibilityMiles, Min VisibilityMiles, Max Wind SpeedMPH, Mean Wind SpeedMPH, Max Gust SpeedMPH,PrecipitationIn, CloudCover, Events, WindDirDegrees
2013-10-1,80,63,46,70,65,59,94,85,69,30.07,30.03,29.99,10,8,2,14,6,20,0.00,7,,190
2013-10-2,82,64,46,70,68,66,94,85,66,30.11,30.06,30.02,10,7,0,8,3,,0.10,6,Thunderstorm,180
2013-10-3,86,76,66,70,66,64,94,76,51,30.05,30.00,29.94,10,10,5,18,7,22,0.01,4,,185
2013-10-4,87,76,66,72,68,64,94,79,55,30.05,30.01,29.96,10,10,7,16,5,25,0.00,5,Thunderstorm,185
2013-10-5,78,72,64,73,68,61,100,89,78,30.01,29.95,29.83,10,10,5,16,7,20,0.34,5,Thunderstorm,197
2013-10-6,66,56,46,52,44,37,88,64,42,29.92,29.88,29.82,10,10,10,17,7,22,0.00,4,,244
2013-10-7,66,56,46,48,45,39,93,73,49,30.17,30.05,29.91,10,10,6,10,5,,0.00,4,,273
2013-10-8,71,56,42,52,46,37,93,74,43,30.25,30.19,30.16,10,10,5,12,2,16,0.00,0,,91
2013-10-9,77,60,42,57,49,39,94,75,47,30.21,30.16,30.12,10,9,5,6,2,,0.00,0,,41
2013-10-10,78,63,48,64,56,46,94,80,54,30.18,30.11,30.05,10,8,2,6,0,,0.00,3,,108
2013-10-11,80,64,48,63,55,46,94,75,44,30.08,30.03,29.98,10,8,1,14,2,20,0.00,1,,169
2013-10-12,71,60,51,64,57,48,100,88,77,30.18,30.07,30.00,10,7,0,10,1,,0.01,5,,219
2013-10-13,73,58,44,54,42,37,93,56,27,30.37,30.30,30.19,10,10,9,15,5,21,0.00,0,,19
2013-10-14,69,58,48,54,45,36,88,65,53,30.34,30.25,30.11,10,10,9,10,6,,0.00,0,,49
2013-10-15,68,64,60,64,60,52,94,86,72,30.10,29.99,29.93,10,8,3,17,6,17,0.08,7,,188
2013-10-16,62,52,42,52,44,39,87,68,48,30.05,30.00,29.96,10,10,10,9,2,,0.00,4,,286
2013-10-17,62,50,39,46,43,36,93,80,52,30.01,29.99,29.95,10,9,1,12,2,20,0.05,5,,246
2013-10-18,64,50,37,48,42,34,93,74,49,30.05,30.00,29.97,10,7,0,10,2,,0.00,3,,272
2013-10-19,57,46,35,45,38,34,93,73,41,30.03,30.00,29.95,10,10,5,15,3,20,0.21,4,,268
2013-10-20,66,52,37,45,40,34,93,69,43,30.02,29.98,29.94,10,10,8,22,6,28,0.00,0,,194
2013-10-21,57,44,30,46,40,30,100,74,58,30.07,30.01,29.97,10,10,7,10,2,,0.00,4,,260
2013-10-22,57,42,28,45,34,25,100,73,44,30.08,29.97,29.83,10,9,1,15,4,21,0.02,4,,217
2013-10-23,48,42,35,36,31,27,87,64,43,30.13,30.07,29.92,10,10,9,14,4,18,0.02,6,,295
2013-10-24,46,36,26,36,28,21,87,67,39,30.40,30.25,30.13,10,10,10,9,2,17,0.00,6,,304
2013-10-25,53,36,21,30,24,16,93,66,35,30.53,30.42,30.27,10,10,9,8,1,,0.00,0,,208
2013-10-26,66,46,26,45,33,19,93,60,41,30.26,30.12,30.00,10,10,10,20,5,24,0.00,2,,226
2013-10-27,60,43,26,36,28,23,93,67,31,30.15,30.10,30.05,10,10,2,8,1,,0.00,0,,207
2013-10-28,68,47,26,39,32,21,93,68,32,30.28,30.19,30.08,10,10,7,6,1,,0.00,0,,100
2013-10-29,57,47,37,55,45,34,94,83,62,30.29,30.21,30.11,10,7,2,8,2,,0.56,4,,74
2013-10-30,73,65,57,66,61,55,100,86,69,30.11,30.04,29.92,10,7,0,18,5,26,0.06,7,,191
2013-10-31,66,60,53,63,59,48,94,91,77,29.91,29.63,29.40,10,9,2,24,12,38,2.64,8,Thunderstorm,201